sensor_id;sensor_type;location;lat;lon;timestamp;temperature;humidity
39347;DHT22;26262;49.836;6.632;2023-04-24T00:00:40;10.10;99.90
39347;DHT22;26262;49.836;6.632;2023-04-24T00:03:06;9.90;99.90
39347;DHT22;26262;49.836;6.632;2023-04-24T00:05:32;9.70;99.90
39347;DHT22;26262;49.836;6.632;2023-04-24T00:07:58;9.70;99.90
39347;DHT22;26262;49.836;6.632;2023-04-24T00:10:23;9.60;99.90
39347;DHT22;26262;49.836;6.632;2023-04-24T00:12:50;9.50;99.90
39347;DHT22;26262;49.836;6.632;2023-04-24T00:15:15;9.40;99.90
39347;DHT22;26262;49.836;6.632;2023-04-24T00:17:41;9.40;99.90
39347;DHT22;26262;49.836;6.632;2023-04-24T00:20:07;9.50;99.90
39347;DHT22;26262;49.836;6.632;2023-04-24T00:22:33;9.50;99.90
39347;DHT22;26262;49.836;6.632;2023-04-24T00:24:59;9.40;99.90
39347;DHT22;26262;49.836;6.632;2023-04-24T00:27:24;9.50;99.90
39347;DHT22;26262;49.836;6.632;2023-04-24T00:29:50;9.40;99.90
39347;DHT22;26262;49.836;6.632;2023-04-24T00:32:16;9.30;99.90
39347;DHT22;26262;49.836;6.632;2023-04-24T00:34:42;9.50;99.90
39347;DHT22;26262;49.836;6.632;2023-04-24T00:37:08;9.60;99.90
39347;DHT22;26262;49.836;6.632;2023-04-24T00:39:33;9.60;99.90
39347;DHT22;26262;49.836;6.632;2023-04-24T00:41:59;9.60;99.90
39347;DHT22;26262;49.836;6.632;2023-04-24T00:44:26;9.60;99.90
39347;DHT22;26262;49.836;6.632;2023-04-24T00:46:52;9.50;99.90
39347;DHT22;26262;49.836;6.632;2023-04-24T00:49:20;9.60;99.90
39347;DHT22;26262;49.836;6.632;2023-04-24T00:51:45;9.50;99.90
39347;DHT22;26262;49.836;6.632;2023-04-24T00:54:12;9.60;99.90
39347;DHT22;26262;49.836;6.632;2023-04-24T00:56:39;9.60;99.90
39347;DHT22;26262;49.836;6.632;2023-04-24T00:59:04;9.60;99.90
39347;DHT22;26262;49.836;6.632;2023-04-24T01:01:30;9.50;99.90
39347;DHT22;26262;49.836;6.632;2023-04-24T01:03:56;9.60;99.90
39347;DHT22;26262;49.836;6.632;2023-04-24T01:06:23;9.70;99.90
39347;DHT22;26262;49.836;6.632;2023-04-24T01:08:52;9.60;99.90
39347;DHT22;26262;49.836;6.632;2023-04-24T01:11:18;9.70;99.90
39347;DHT22;26262;49.836;6.632;2023-04-24T01:13:43;9.60;99.90
39347;DHT22;26262;49.836;6.632;2023-04-24T01:16:10;9.70;99.90
39347;DHT22;26262;49.836;6.632;2023-04-24T01:18:36;9.60;99.90
39347;DHT22;26262;49.836;6.632;2023-04-24T01:21:04;9.70;99.90
39347;DHT22;26262;49.836;6.632;2023-04-24T01:23:29;9.60;99.90
39347;DHT22;26262;49.836;6.632;2023-04-24T01:25:55;9.50;99.90
39347;DHT22;26262;49.836;6.632;2023-04-24T01:28:21;9.50;99.90
39347;DHT22;26262;49.836;6.632;2023-04-24T01:30:47;9.40;99.90
39347;DHT22;26262;49.836;6.632;2023-04-24T01:33:13;9.30;99.90
39347;DHT22;26262;49.836;6.632;2023-04-24T01:35:38;9.30;99.90
39347;DHT22;26262;49.836;6.632;2023-04-24T01:38:05;9.30;99.90
39347;DHT22;26262;49.836;6.632;2023-04-24T01:40:31;9.10;99.90
39347;DHT22;26262;49.836;6.632;2023-04-24T01:42:57;8.90;99.90
39347;DHT22;26262;49.836;6.632;2023-04-24T01:45:23;9.00;99.90
39347;DHT22;26262;49.836;6.632;2023-04-24T01:47:49;8.90;99.90
39347;DHT22;26262;49.836;6.632;2023-04-24T01:50:15;8.80;99.90
39347;DHT22;26262;49.836;6.632;2023-04-24T01:52:41;8.70;99.90
39347;DHT22;26262;49.836;6.632;2023-04-24T01:55:07;8.60;99.90
39347;DHT22;26262;49.836;6.632;2023-04-24T01:57:33;8.70;99.90
39347;DHT22;26262;49.836;6.632;2023-04-24T01:59:59;8.50;99.90
39347;DHT22;26262;49.836;6.632;2023-04-24T02:02:25;8.60;99.90
39347;DHT22;26262;49.836;6.632;2023-04-24T02:04:53;8.40;99.90
39347;DHT22;26262;49.836;6.632;2023-04-24T02:07:19;8.30;99.90
39347;DHT22;26262;49.836;6.632;2023-04-24T02:09:45;8.20;99.90
39347;DHT22;26262;49.836;6.632;2023-04-24T02:12:10;8.10;99.90
39347;DHT22;26262;49.836;6.632;2023-04-24T02:14:36;8.00;99.90
39347;DHT22;26262;49.836;6.632;2023-04-24T02:17:01;8.00;99.90
39347;DHT22;26262;49.836;6.632;2023-04-24T02:19:27;8.00;99.90
39347;DHT22;26262;49.836;6.632;2023-04-24T02:21:52;7.80;99.90
39347;DHT22;26262;49.836;6.632;2023-04-24T02:24:18;7.90;99.90
39347;DHT22;26262;49.836;6.632;2023-04-24T02:26:43;7.90;99.90
39347;DHT22;26262;49.836;6.632;2023-04-24T02:29:09;8.00;99.90
39347;DHT22;26262;49.836;6.632;2023-04-24T02:31:35;7.90;99.90
39347;DHT22;26262;49.836;6.632;2023-04-24T02:34:00;7.90;99.90
39347;DHT22;26262;49.836;6.632;2023-04-24T02:36:26;7.80;99.90
39347;DHT22;26262;49.836;6.632;2023-04-24T02:38:51;7.80;99.90
39347;DHT22;26262;49.836;6.632;2023-04-24T02:41:17;7.90;99.90
39347;DHT22;26262;49.836;6.632;2023-04-24T02:43:42;7.60;99.90
39347;DHT22;26262;49.836;6.632;2023-04-24T02:46:08;7.50;99.90
39347;DHT22;26262;49.836;6.632;2023-04-24T02:48:33;7.50;99.90
39347;DHT22;26262;49.836;6.632;2023-04-24T02:50:59;7.50;99.90
39347;DHT22;26262;49.836;6.632;2023-04-24T02:53:25;7.30;99.90
39347;DHT22;26262;49.836;6.632;2023-04-24T02:55:50;7.20;99.90
39347;DHT22;26262;49.836;6.632;2023-04-24T02:58:16;7.40;99.90
39347;DHT22;26262;49.836;6.632;2023-04-24T03:00:42;7.30;99.90
39347;DHT22;26262;49.836;6.632;2023-04-24T03:03:09;7.20;99.90
39347;DHT22;26262;49.836;6.632;2023-04-24T03:05:34;7.30;99.90
39347;DHT22;26262;49.836;6.632;2023-04-24T03:08:00;7.40;99.90
39347;DHT22;26262;49.836;6.632;2023-04-24T03:10:25;7.50;99.90
39347;DHT22;26262;49.836;6.632;2023-04-24T03:12:51;7.20;99.90
39347;DHT22;26262;49.836;6.632;2023-04-24T03:15:17;7.30;99.90
39347;DHT22;26262;49.836;6.632;2023-04-24T03:17:42;7.30;99.90
39347;DHT22;26262;49.836;6.632;2023-04-24T03:20:08;7.30;99.90
39347;DHT22;26262;49.836;6.632;2023-04-24T03:22:34;7.40;99.90
39347;DHT22;26262;49.836;6.632;2023-04-24T03:25:00;7.60;99.90
39347;DHT22;26262;49.836;6.632;2023-04-24T03:27:26;7.40;99.90
39347;DHT22;26262;49.836;6.632;2023-04-24T03:29:52;7.50;99.90
39347;DHT22;26262;49.836;6.632;2023-04-24T03:32:23;7.50;99.90
39347;DHT22;26262;49.836;6.632;2023-04-24T03:34:49;7.30;99.90
39347;DHT22;26262;49.836;6.632;2023-04-24T03:37:16;7.40;99.90
39347;DHT22;26262;49.836;6.632;2023-04-24T03:39:41;7.30;99.90
39347;DHT22;26262;49.836;6.632;2023-04-24T03:42:07;7.30;99.90
39347;DHT22;26262;49.836;6.632;2023-04-24T03:44:34;7.50;99.90
39347;DHT22;26262;49.836;6.632;2023-04-24T03:47:00;7.40;99.90
39347;DHT22;26262;49.836;6.632;2023-04-24T03:49:25;7.30;99.90
39347;DHT22;26262;49.836;6.632;2023-04-24T03:51:51;7.50;99.90
39347;DHT22;26262;49.836;6.632;2023-04-24T03:54:18;7.30;99.90
39347;DHT22;26262;49.836;6.632;2023-04-24T03:56:43;7.40;99.90
39347;DHT22;26262;49.836;6.632;2023-04-24T03:59:09;7.30;99.90
39347;DHT22;26262;49.836;6.632;2023-04-24T04:01:35;7.40;99.90
39347;DHT22;26262;49.836;6.632;2023-04-24T04:04:03;7.50;99.90
39347;DHT22;26262;49.836;6.632;2023-04-24T04:06:29;7.40;99.90
39347;DHT22;26262;49.836;6.632;2023-04-24T04:08:56;7.30;99.90
39347;DHT22;26262;49.836;6.632;2023-04-24T04:11:22;7.20;99.90
39347;DHT22;26262;49.836;6.632;2023-04-24T04:13:48;7.20;99.90
39347;DHT22;26262;49.836;6.632;2023-04-24T04:16:13;7.20;99.90
39347;DHT22;26262;49.836;6.632;2023-04-24T04:18:39;7.10;99.90
39347;DHT22;26262;49.836;6.632;2023-04-24T04:21:05;7.20;99.90
39347;DHT22;26262;49.836;6.632;2023-04-24T04:23:30;7.20;99.90
39347;DHT22;26262;49.836;6.632;2023-04-24T04:25:57;7.30;99.90
39347;DHT22;26262;49.836;6.632;2023-04-24T04:28:23;7.50;99.90
39347;DHT22;26262;49.836;6.632;2023-04-24T04:30:50;7.60;99.90
39347;DHT22;26262;49.836;6.632;2023-04-24T04:33:22;7.60;99.90
39347;DHT22;26262;49.836;6.632;2023-04-24T04:35:47;7.70;99.90
39347;DHT22;26262;49.836;6.632;2023-04-24T04:38:19;7.50;99.90
39347;DHT22;26262;49.836;6.632;2023-04-24T04:40:45;7.50;99.90
39347;DHT22;26262;49.836;6.632;2023-04-24T04:43:11;7.50;99.90
39347;DHT22;26262;49.836;6.632;2023-04-24T04:45:38;7.40;99.90
39347;DHT22;26262;49.836;6.632;2023-04-24T04:48:05;7.40;99.90
39347;DHT22;26262;49.836;6.632;2023-04-24T04:50:33;7.40;99.90
39347;DHT22;26262;49.836;6.632;2023-04-24T04:52:58;7.40;99.90
39347;DHT22;26262;49.836;6.632;2023-04-24T04:55:24;7.40;99.90
39347;DHT22;26262;49.836;6.632;2023-04-24T04:57:50;7.40;99.90
39347;DHT22;26262;49.836;6.632;2023-04-24T05:00:16;7.50;99.90
39347;DHT22;26262;49.836;6.632;2023-04-24T05:02:41;7.50;99.90
39347;DHT22;26262;49.836;6.632;2023-04-24T05:05:07;7.60;99.90
39347;DHT22;26262;49.836;6.632;2023-04-24T05:07:33;7.60;99.90
39347;DHT22;26262;49.836;6.632;2023-04-24T05:09:59;7.60;99.90
39347;DHT22;26262;49.836;6.632;2023-04-24T05:12:25;7.60;99.90
39347;DHT22;26262;49.836;6.632;2023-04-24T05:14:50;7.70;99.90
39347;DHT22;26262;49.836;6.632;2023-04-24T05:17:16;7.70;99.90
39347;DHT22;26262;49.836;6.632;2023-04-24T05:19:42;7.80;99.90
39347;DHT22;26262;49.836;6.632;2023-04-24T05:22:08;7.90;99.90
39347;DHT22;26262;49.836;6.632;2023-04-24T05:24:35;7.90;99.90
39347;DHT22;26262;49.836;6.632;2023-04-24T05:27:04;8.00;99.90
39347;DHT22;26262;49.836;6.632;2023-04-24T05:29:32;8.00;99.90
39347;DHT22;26262;49.836;6.632;2023-04-24T05:31:59;8.00;99.90
39347;DHT22;26262;49.836;6.632;2023-04-24T05:34:25;8.10;99.90
39347;DHT22;26262;49.836;6.632;2023-04-24T05:36:51;8.10;99.90
39347;DHT22;26262;49.836;6.632;2023-04-24T05:39:17;8.20;99.90
39347;DHT22;26262;49.836;6.632;2023-04-24T05:41:43;8.20;99.90
39347;DHT22;26262;49.836;6.632;2023-04-24T05:44:08;8.30;99.90
39347;DHT22;26262;49.836;6.632;2023-04-24T05:46:34;8.30;99.90
39347;DHT22;26262;49.836;6.632;2023-04-24T05:49:00;8.30;99.90
39347;DHT22;26262;49.836;6.632;2023-04-24T05:51:26;8.40;99.90
39347;DHT22;26262;49.836;6.632;2023-04-24T05:53:51;8.40;99.90
39347;DHT22;26262;49.836;6.632;2023-04-24T05:56:17;8.40;99.90
39347;DHT22;26262;49.836;6.632;2023-04-24T05:58:45;8.40;99.90
39347;DHT22;26262;49.836;6.632;2023-04-24T06:01:11;8.40;99.90
39347;DHT22;26262;49.836;6.632;2023-04-24T06:03:38;8.50;99.90
39347;DHT22;26262;49.836;6.632;2023-04-24T06:06:05;8.50;99.90
39347;DHT22;26262;49.836;6.632;2023-04-24T06:08:31;8.40;99.90
39347;DHT22;26262;49.836;6.632;2023-04-24T06:10:57;8.40;99.90
39347;DHT22;26262;49.836;6.632;2023-04-24T06:13:22;8.50;99.90
39347;DHT22;26262;49.836;6.632;2023-04-24T06:15:48;8.50;99.90
39347;DHT22;26262;49.836;6.632;2023-04-24T06:18:13;8.50;99.90
39347;DHT22;26262;49.836;6.632;2023-04-24T06:20:39;8.40;99.90
39347;DHT22;26262;49.836;6.632;2023-04-24T06:23:05;8.40;99.90
39347;DHT22;26262;49.836;6.632;2023-04-24T06:25:30;8.40;99.90
39347;DHT22;26262;49.836;6.632;2023-04-24T06:27:56;8.50;99.90
39347;DHT22;26262;49.836;6.632;2023-04-24T06:30:22;8.50;99.90
39347;DHT22;26262;49.836;6.632;2023-04-24T06:32:48;8.50;99.90
39347;DHT22;26262;49.836;6.632;2023-04-24T06:35:13;8.50;99.90
39347;DHT22;26262;49.836;6.632;2023-04-24T06:37:40;8.50;99.90
39347;DHT22;26262;49.836;6.632;2023-04-24T06:40:07;8.60;99.90
39347;DHT22;26262;49.836;6.632;2023-04-24T06:42:32;8.60;99.90
39347;DHT22;26262;49.836;6.632;2023-04-24T06:44:58;8.60;99.90
39347;DHT22;26262;49.836;6.632;2023-04-24T06:47:23;8.60;99.90
39347;DHT22;26262;49.836;6.632;2023-04-24T06:49:49;8.60;99.90
39347;DHT22;26262;49.836;6.632;2023-04-24T06:52:16;8.60;99.90
39347;DHT22;26262;49.836;6.632;2023-04-24T06:54:42;8.70;99.90
39347;DHT22;26262;49.836;6.632;2023-04-24T06:57:08;8.70;99.90
39347;DHT22;26262;49.836;6.632;2023-04-24T06:59:33;8.80;99.90
39347;DHT22;26262;49.836;6.632;2023-04-24T07:01:59;8.80;99.90
39347;DHT22;26262;49.836;6.632;2023-04-24T07:04:25;8.80;99.90
39347;DHT22;26262;49.836;6.632;2023-04-24T07:06:51;8.70;99.90
39347;DHT22;26262;49.836;6.632;2023-04-24T07:09:19;8.70;99.90
39347;DHT22;26262;49.836;6.632;2023-04-24T07:11:45;8.70;99.90
39347;DHT22;26262;49.836;6.632;2023-04-24T07:14:11;8.80;99.90
39347;DHT22;26262;49.836;6.632;2023-04-24T07:16:37;8.70;99.90
39347;DHT22;26262;49.836;6.632;2023-04-24T07:19:03;8.80;99.90
39347;DHT22;26262;49.836;6.632;2023-04-24T07:21:28;8.90;99.90
39347;DHT22;26262;49.836;6.632;2023-04-24T07:23:54;8.90;99.90
39347;DHT22;26262;49.836;6.632;2023-04-24T07:26:20;9.10;99.90
39347;DHT22;26262;49.836;6.632;2023-04-24T07:28:46;9.10;99.90
39347;DHT22;26262;49.836;6.632;2023-04-24T07:31:11;9.20;99.90
39347;DHT22;26262;49.836;6.632;2023-04-24T07:33:37;9.10;99.90
39347;DHT22;26262;49.836;6.632;2023-04-24T07:36:03;9.10;99.90
39347;DHT22;26262;49.836;6.632;2023-04-24T07:38:30;9.10;99.90
39347;DHT22;26262;49.836;6.632;2023-04-24T07:40:55;9.10;99.90
39347;DHT22;26262;49.836;6.632;2023-04-24T07:43:21;9.10;99.90
39347;DHT22;26262;49.836;6.632;2023-04-24T07:45:47;9.10;99.90
39347;DHT22;26262;49.836;6.632;2023-04-24T07:48:12;9.10;99.90
39347;DHT22;26262;49.836;6.632;2023-04-24T07:50:41;9.20;99.90
39347;DHT22;26262;49.836;6.632;2023-04-24T07:53:07;9.30;99.90
39347;DHT22;26262;49.836;6.632;2023-04-24T07:55:33;9.30;99.90
39347;DHT22;26262;49.836;6.632;2023-04-24T07:57:58;9.10;99.90
39347;DHT22;26262;49.836;6.632;2023-04-24T08:00:24;9.10;99.90
39347;DHT22;26262;49.836;6.632;2023-04-24T08:02:49;9.10;99.90
39347;DHT22;26262;49.836;6.632;2023-04-24T08:05:15;9.20;99.90
39347;DHT22;26262;49.836;6.632;2023-04-24T08:07:40;9.20;99.90
39347;DHT22;26262;49.836;6.632;2023-04-24T08:10:09;9.10;99.90
39347;DHT22;26262;49.836;6.632;2023-04-24T08:12:35;9.00;99.90
39347;DHT22;26262;49.836;6.632;2023-04-24T08:15:01;9.10;99.90
39347;DHT22;26262;49.836;6.632;2023-04-24T08:17:26;9.20;99.90
39347;DHT22;26262;49.836;6.632;2023-04-24T08:19:52;9.30;99.90
39347;DHT22;26262;49.836;6.632;2023-04-24T08:22:24;9.30;99.90
39347;DHT22;26262;49.836;6.632;2023-04-24T08:24:49;9.30;99.90
39347;DHT22;26262;49.836;6.632;2023-04-24T08:27:15;9.40;99.90
39347;DHT22;26262;49.836;6.632;2023-04-24T08:29:40;9.50;99.90
39347;DHT22;26262;49.836;6.632;2023-04-24T08:32:06;9.50;99.90
39347;DHT22;26262;49.836;6.632;2023-04-24T08:34:31;9.50;99.90
39347;DHT22;26262;49.836;6.632;2023-04-24T08:36:57;9.50;99.90
39347;DHT22;26262;49.836;6.632;2023-04-24T08:39:23;9.60;99.90
39347;DHT22;26262;49.836;6.632;2023-04-24T08:41:48;9.60;99.90
39347;DHT22;26262;49.836;6.632;2023-04-24T08:44:16;9.60;99.90
39347;DHT22;26262;49.836;6.632;2023-04-24T08:46:43;9.60;99.90
39347;DHT22;26262;49.836;6.632;2023-04-24T08:49:11;9.50;99.90
39347;DHT22;26262;49.836;6.632;2023-04-24T08:51:37;9.50;99.90
39347;DHT22;26262;49.836;6.632;2023-04-24T08:54:04;9.50;99.90
39347;DHT22;26262;49.836;6.632;2023-04-24T08:56:32;9.50;99.90
39347;DHT22;26262;49.836;6.632;2023-04-24T08:58:58;9.60;99.90
39347;DHT22;26262;49.836;6.632;2023-04-24T09:01:25;9.70;99.90
39347;DHT22;26262;49.836;6.632;2023-04-24T09:03:51;9.80;99.90
39347;DHT22;26262;49.836;6.632;2023-04-24T09:06:18;9.90;99.90
39347;DHT22;26262;49.836;6.632;2023-04-24T09:08:45;10.10;99.90
39347;DHT22;26262;49.836;6.632;2023-04-24T09:11:11;10.10;99.90
39347;DHT22;26262;49.836;6.632;2023-04-24T09:13:37;9.90;99.90
39347;DHT22;26262;49.836;6.632;2023-04-24T09:16:03;9.90;99.90
39347;DHT22;26262;49.836;6.632;2023-04-24T09:18:29;9.90;99.90
39347;DHT22;26262;49.836;6.632;2023-04-24T09:21:08;10.10;99.90
39347;DHT22;26262;49.836;6.632;2023-04-24T09:23:34;10.30;99.90
39347;DHT22;26262;49.836;6.632;2023-04-24T09:26:01;10.50;99.90
39347;DHT22;26262;49.836;6.632;2023-04-24T09:28:31;10.50;99.90
39347;DHT22;26262;49.836;6.632;2023-04-24T09:31:21;10.50;99.90
39347;DHT22;26262;49.836;6.632;2023-04-24T09:33:58;10.60;99.90
39347;DHT22;26262;49.836;6.632;2023-04-24T09:36:31;10.60;99.90
39347;DHT22;26262;49.836;6.632;2023-04-24T09:39:02;10.90;99.90
39347;DHT22;26262;49.836;6.632;2023-04-24T09:41:28;11.00;99.90
39347;DHT22;26262;49.836;6.632;2023-04-24T09:43:57;11.20;99.90
39347;DHT22;26262;49.836;6.632;2023-04-24T09:46:30;11.10;99.90
39347;DHT22;26262;49.836;6.632;2023-04-24T09:49:08;11.00;99.90
39347;DHT22;26262;49.836;6.632;2023-04-24T09:51:36;11.00;99.90
39347;DHT22;26262;49.836;6.632;2023-04-24T09:54:03;10.80;99.90
39347;DHT22;26262;49.836;6.632;2023-04-24T09:56:32;10.70;99.90
39347;DHT22;26262;49.836;6.632;2023-04-24T09:59:05;10.50;99.90
39347;DHT22;26262;49.836;6.632;2023-04-24T10:01:31;10.40;99.90
39347;DHT22;26262;49.836;6.632;2023-04-24T10:03:57;10.30;99.90
39347;DHT22;26262;49.836;6.632;2023-04-24T10:06:23;10.30;99.90
39347;DHT22;26262;49.836;6.632;2023-04-24T10:08:56;10.40;99.90
39347;DHT22;26262;49.836;6.632;2023-04-24T10:11:25;10.50;99.90
39347;DHT22;26262;49.836;6.632;2023-04-24T10:13:52;10.70;99.90
39347;DHT22;26262;49.836;6.632;2023-04-24T10:16:18;10.80;99.90
39347;DHT22;26262;49.836;6.632;2023-04-24T10:18:44;10.80;99.90
39347;DHT22;26262;49.836;6.632;2023-04-24T10:21:11;10.70;99.90
39347;DHT22;26262;49.836;6.632;2023-04-24T10:23:37;10.50;99.90
39347;DHT22;26262;49.836;6.632;2023-04-24T10:26:03;10.60;99.90
39347;DHT22;26262;49.836;6.632;2023-04-24T10:28:30;10.50;99.90
39347;DHT22;26262;49.836;6.632;2023-04-24T10:30:57;10.50;99.90
39347;DHT22;26262;49.836;6.632;2023-04-24T10:33:24;10.60;99.90
39347;DHT22;26262;49.836;6.632;2023-04-24T10:35:51;10.60;99.90
39347;DHT22;26262;49.836;6.632;2023-04-24T10:38:21;10.60;99.90
39347;DHT22;26262;49.836;6.632;2023-04-24T10:40:49;10.70;99.90
39347;DHT22;26262;49.836;6.632;2023-04-24T10:43:17;10.70;99.90
39347;DHT22;26262;49.836;6.632;2023-04-24T10:45:42;10.80;99.90
39347;DHT22;26262;49.836;6.632;2023-04-24T10:48:26;10.80;99.90
39347;DHT22;26262;49.836;6.632;2023-04-24T10:50:53;10.80;99.90
39347;DHT22;26262;49.836;6.632;2023-04-24T10:53:24;10.90;99.90
39347;DHT22;26262;49.836;6.632;2023-04-24T10:56:03;11.00;99.90
39347;DHT22;26262;49.836;6.632;2023-04-24T10:58:41;11.10;99.90
39347;DHT22;26262;49.836;6.632;2023-04-24T11:01:26;11.30;99.90
39347;DHT22;26262;49.836;6.632;2023-04-24T11:03:59;11.20;99.90
39347;DHT22;26262;49.836;6.632;2023-04-24T11:06:37;11.20;99.90
39347;DHT22;26262;49.836;6.632;2023-04-24T11:09:07;11.30;99.90
39347;DHT22;26262;49.836;6.632;2023-04-24T11:11:33;11.10;99.90
39347;DHT22;26262;49.836;6.632;2023-04-24T11:29:49;11.40;99.90
39347;DHT22;26262;49.836;6.632;2023-04-24T11:35:29;11.30;99.90
39347;DHT22;26262;49.836;6.632;2023-04-24T11:37:55;11.30;99.90
39347;DHT22;26262;49.836;6.632;2023-04-24T11:40:22;11.30;99.90
39347;DHT22;26262;49.836;6.632;2023-04-24T11:42:50;11.10;99.90
39347;DHT22;26262;49.836;6.632;2023-04-24T11:47:44;11.10;99.90
39347;DHT22;26262;49.836;6.632;2023-04-24T11:50:12;11.00;99.90
39347;DHT22;26262;49.836;6.632;2023-04-24T11:52:38;11.10;99.90
39347;DHT22;26262;49.836;6.632;2023-04-24T11:55:28;11.10;99.90
39347;DHT22;26262;49.836;6.632;2023-04-24T11:57:57;11.00;99.90
39347;DHT22;26262;49.836;6.632;2023-04-24T12:00:31;11.00;99.90
39347;DHT22;26262;49.836;6.632;2023-04-24T12:03:10;11.00;99.90
39347;DHT22;26262;49.836;6.632;2023-04-24T12:05:37;11.10;99.90
39347;DHT22;26262;49.836;6.632;2023-04-24T12:08:03;11.10;99.90
39347;DHT22;26262;49.836;6.632;2023-04-24T12:10:29;11.20;99.90
39347;DHT22;26262;49.836;6.632;2023-04-24T12:12:57;11.30;99.90
39347;DHT22;26262;49.836;6.632;2023-04-24T12:15:23;11.30;99.90
39347;DHT22;26262;49.836;6.632;2023-04-24T12:17:51;11.50;99.90
39347;DHT22;26262;49.836;6.632;2023-04-24T12:20:22;11.60;99.90
39347;DHT22;26262;49.836;6.632;2023-04-24T12:25:16;11.70;99.90
39347;DHT22;26262;49.836;6.632;2023-04-24T12:27:43;11.70;99.90
39347;DHT22;26262;49.836;6.632;2023-04-24T12:30:14;11.70;99.90
39347;DHT22;26262;49.836;6.632;2023-04-24T12:32:49;11.70;99.90
39347;DHT22;26262;49.836;6.632;2023-04-24T12:35:21;11.80;99.90
39347;DHT22;26262;49.836;6.632;2023-04-24T12:37:47;11.80;99.90
39347;DHT22;26262;49.836;6.632;2023-04-24T12:40:13;11.70;99.90
39347;DHT22;26262;49.836;6.632;2023-04-24T12:42:47;11.60;99.90
39347;DHT22;26262;49.836;6.632;2023-04-24T12:45:13;11.60;99.90
39347;DHT22;26262;49.836;6.632;2023-04-24T12:47:40;11.70;99.90
39347;DHT22;26262;49.836;6.632;2023-04-24T12:50:07;11.70;99.90
39347;DHT22;26262;49.836;6.632;2023-04-24T12:52:33;11.60;99.90
39347;DHT22;26262;49.836;6.632;2023-04-24T12:55:00;11.70;99.90
39347;DHT22;26262;49.836;6.632;2023-04-24T12:57:28;11.70;99.90
39347;DHT22;26262;49.836;6.632;2023-04-24T12:59:57;11.80;99.90
39347;DHT22;26262;49.836;6.632;2023-04-24T13:02:24;11.90;99.90
39347;DHT22;26262;49.836;6.632;2023-04-24T13:04:50;12.00;99.90
39347;DHT22;26262;49.836;6.632;2023-04-24T13:07:16;12.10;99.90
39347;DHT22;26262;49.836;6.632;2023-04-24T13:09:42;12.10;99.90
39347;DHT22;26262;49.836;6.632;2023-04-24T13:12:09;12.20;99.90
39347;DHT22;26262;49.836;6.632;2023-04-24T13:14:35;12.20;99.90
39347;DHT22;26262;49.836;6.632;2023-04-24T13:17:01;12.10;99.90
39347;DHT22;26262;49.836;6.632;2023-04-24T13:19:27;11.90;99.90
39347;DHT22;26262;49.836;6.632;2023-04-24T13:21:55;12.00;99.90
39347;DHT22;26262;49.836;6.632;2023-04-24T13:24:21;11.90;99.90
39347;DHT22;26262;49.836;6.632;2023-04-24T13:26:50;12.10;99.90
39347;DHT22;26262;49.836;6.632;2023-04-24T13:29:16;12.10;99.90
39347;DHT22;26262;49.836;6.632;2023-04-24T13:31:42;12.70;99.90
39347;DHT22;26262;49.836;6.632;2023-04-24T13:34:07;13.10;99.90
39347;DHT22;26262;49.836;6.632;2023-04-24T13:36:33;13.10;99.90
39347;DHT22;26262;49.836;6.632;2023-04-24T13:38:59;13.30;99.90
39347;DHT22;26262;49.836;6.632;2023-04-24T13:41:24;13.40;99.90
39347;DHT22;26262;49.836;6.632;2023-04-24T13:43:50;13.20;99.90
39347;DHT22;26262;49.836;6.632;2023-04-24T13:46:16;13.40;99.90
39347;DHT22;26262;49.836;6.632;2023-04-24T13:48:41;13.80;99.90
39347;DHT22;26262;49.836;6.632;2023-04-24T13:51:07;14.00;99.90
39347;DHT22;26262;49.836;6.632;2023-04-24T13:53:32;14.40;99.90
39347;DHT22;26262;49.836;6.632;2023-04-24T13:56:01;14.50;99.90
39347;DHT22;26262;49.836;6.632;2023-04-24T13:58:27;14.80;99.90
39347;DHT22;26262;49.836;6.632;2023-04-24T14:00:53;14.60;99.90
39347;DHT22;26262;49.836;6.632;2023-04-24T14:03:18;14.30;99.90
39347;DHT22;26262;49.836;6.632;2023-04-24T14:05:44;14.20;99.90
39347;DHT22;26262;49.836;6.632;2023-04-24T14:08:09;14.40;99.90
39347;DHT22;26262;49.836;6.632;2023-04-24T14:10:35;14.40;99.90
39347;DHT22;26262;49.836;6.632;2023-04-24T14:13:01;13.90;99.90
39347;DHT22;26262;49.836;6.632;2023-04-24T14:15:26;13.80;99.90
39347;DHT22;26262;49.836;6.632;2023-04-24T14:17:52;13.60;99.90
39347;DHT22;26262;49.836;6.632;2023-04-24T14:20:17;13.40;99.90
39347;DHT22;26262;49.836;6.632;2023-04-24T14:22:43;13.20;99.90
39347;DHT22;26262;49.836;6.632;2023-04-24T14:25:09;13.10;99.90
39347;DHT22;26262;49.836;6.632;2023-04-24T14:27:34;13.00;99.90
39347;DHT22;26262;49.836;6.632;2023-04-24T14:30:00;12.80;99.90
39347;DHT22;26262;49.836;6.632;2023-04-24T14:32:26;12.70;99.90
39347;DHT22;26262;49.836;6.632;2023-04-24T14:34:51;12.80;99.90
39347;DHT22;26262;49.836;6.632;2023-04-24T14:37:17;12.90;99.90
39347;DHT22;26262;49.836;6.632;2023-04-24T14:39:42;12.90;99.90
39347;DHT22;26262;49.836;6.632;2023-04-24T14:42:08;12.90;99.90
39347;DHT22;26262;49.836;6.632;2023-04-24T14:44:33;12.60;99.90
39347;DHT22;26262;49.836;6.632;2023-04-24T14:46:59;12.40;99.90
39347;DHT22;26262;49.836;6.632;2023-04-24T14:49:25;12.10;99.90
39347;DHT22;26262;49.836;6.632;2023-04-24T14:51:51;11.90;99.90
39347;DHT22;26262;49.836;6.632;2023-04-24T14:54:16;11.90;99.90
39347;DHT22;26262;49.836;6.632;2023-04-24T14:56:42;11.80;99.90
39347;DHT22;26262;49.836;6.632;2023-04-24T14:59:09;11.90;99.90
39347;DHT22;26262;49.836;6.632;2023-04-24T15:01:35;11.40;99.90
39347;DHT22;26262;49.836;6.632;2023-04-24T15:04:01;10.90;99.90
39347;DHT22;26262;49.836;6.632;2023-04-24T15:06:26;10.80;99.90
39347;DHT22;26262;49.836;6.632;2023-04-24T15:08:52;10.90;99.90
39347;DHT22;26262;49.836;6.632;2023-04-24T15:11:18;10.90;99.90
39347;DHT22;26262;49.836;6.632;2023-04-24T15:13:43;11.10;99.90
39347;DHT22;26262;49.836;6.632;2023-04-24T15:16:12;11.40;99.90
39347;DHT22;26262;49.836;6.632;2023-04-24T15:18:37;11.70;99.90
39347;DHT22;26262;49.836;6.632;2023-04-24T15:21:03;12.00;99.90
39347;DHT22;26262;49.836;6.632;2023-04-24T15:23:28;12.20;99.90
39347;DHT22;26262;49.836;6.632;2023-04-24T15:25:54;12.10;99.90
39347;DHT22;26262;49.836;6.632;2023-04-24T15:28:19;12.10;99.90
39347;DHT22;26262;49.836;6.632;2023-04-24T15:30:47;12.00;99.90
39347;DHT22;26262;49.836;6.632;2023-04-24T15:33:13;12.00;99.90
39347;DHT22;26262;49.836;6.632;2023-04-24T15:35:38;12.00;99.90
39347;DHT22;26262;49.836;6.632;2023-04-24T15:38:04;12.20;99.90
39347;DHT22;26262;49.836;6.632;2023-04-24T15:40:30;12.20;99.90
39347;DHT22;26262;49.836;6.632;2023-04-24T15:42:55;12.00;99.90
39347;DHT22;26262;49.836;6.632;2023-04-24T15:45:22;12.00;99.90
39347;DHT22;26262;49.836;6.632;2023-04-24T15:47:48;12.10;99.90
39347;DHT22;26262;49.836;6.632;2023-04-24T15:50:14;11.90;99.90
39347;DHT22;26262;49.836;6.632;2023-04-24T15:52:42;11.60;99.90
39347;DHT22;26262;49.836;6.632;2023-04-24T15:55:07;11.60;99.90
39347;DHT22;26262;49.836;6.632;2023-04-24T15:57:33;11.70;99.90
39347;DHT22;26262;49.836;6.632;2023-04-24T15:59:59;11.80;99.90